Time;durP1;ratioP1;P1;durP2;ratioP2;P2;SDS_P1;SDS_P2;PMS_P1;PMS_P2;Temp;Humidity;BMP_temperature;BMP_pressure;BME280_temperature;BME280_humidity;BME280_pressure;Samples;Min_cycle;Max_cycle;Signal;HPM_P1;HPM_P2
2023/03/05 00:01:08;;;;;;;1.67;1.40;;;;;;;5.18;55.69;96485.50;5023265;28;20146;-68
2023/03/05 00:03:34;;;;;;;2.23;1.53;;;;;;;4.98;55.29;96455.72;5043444;28;20043;-68
2023/03/05 00:06:01;;;;;;;1.70;1.50;;;;;;;5.20;54.99;96472.13;5027499;28;20492;-68
2023/03/05 00:08:29;;;;;;;1.40;1.30;;;;;;;5.49;54.32;96466.47;5044698;28;20044;-67
2023/03/05 00:11:00;;;;;;;2.43;1.33;;;;;;;5.34;54.39;96465.88;5027309;28;20040;-68
2023/03/05 00:13:27;;;;;;;1.83;1.50;;;;;;;4.94;54.37;96485.25;5043839;28;20444;-68
2023/03/05 00:15:54;;;;;;;2.07;1.50;;;;;;;5.12;54.64;96478.41;5056919;28;20059;-67
2023/03/05 00:18:22;;;;;;;2.37;1.60;;;;;;;5.03;54.04;96471.72;5023749;28;20155;-68
2023/03/05 00:20:49;;;;;;;2.43;1.40;;;;;;;4.41;55.37;96473.00;5040744;28;20121;-68
2023/03/05 00:23:15;;;;;;;2.23;1.50;;;;;;;4.75;55.74;96478.16;5039569;28;20117;-71
2023/03/05 00:25:41;;;;;;;2.50;1.40;;;;;;;4.41;56.77;96473.00;5040774;28;20075;-67
2023/03/05 00:28:08;;;;;;;3.20;1.57;;;;;;;4.80;56.28;96473.09;5023765;28;20041;-67
2023/03/05 00:30:34;;;;;;;1.90;1.57;;;;;;;4.53;56.17;96466.97;5007481;28;20078;-67
2023/03/05 00:33:01;;;;;;;3.23;1.43;;;;;;;4.63;56.34;96469.19;5023773;28;20039;-67
2023/03/05 00:35:27;;;;;;;3.67;1.73;;;;;;;4.95;56.02;96465.88;5040369;28;20110;-67
2023/03/05 00:37:53;;;;;;;1.70;1.50;;;;;;;4.74;55.92;96472.06;5022696;28;20056;-67
2023/03/05 00:40:19;;;;;;;2.93;1.50;;;;;;;4.89;55.64;96469.25;5023369;28;20059;-69
2023/03/05 00:42:45;;;;;;;3.23;1.30;;;;;;;4.82;55.82;96466.63;5040016;28;20135;-68
2023/03/05 00:45:11;;;;;;;3.37;1.83;;;;;;;4.40;55.53;96480.03;5007537;28;20134;-68
2023/03/05 00:47:38;;;;;;;1.97;1.50;;;;;;;4.60;56.46;96470.41;5023249;28;20502;-68
2023/03/05 00:50:06;;;;;;;2.17;1.50;;;;;;;4.99;55.94;96472.31;5023446;28;20044;-67
2023/03/05 00:52:33;;;;;;;2.47;1.40;;;;;;;4.72;55.07;96473.28;5039896;28;20044;-67
2023/03/05 00:54:58;;;;;;;3.93;1.50;;;;;;;5.01;54.65;96473.75;5039616;28;20404;-67
2023/03/05 00:57:27;;;;;;;5.03;1.53;;;;;;;4.70;54.42;96465.59;5023871;28;20568;-67
2023/03/05 00:59:53;;;;;;;2.40;1.50;;;;;;;4.97;54.68;96472.53;5039255;28;20056;-68
2023/03/05 01:02:20;;;;;;;2.73;1.40;;;;;;;5.02;54.15;96471.94;5007363;28;20048;-68
2023/03/05 01:04:46;;;;;;;2.97;1.30;;;;;;;4.75;54.10;96455.28;5039990;28;20044;-68
2023/03/05 01:07:12;;;;;;;1.27;1.00;;;;;;;4.46;55.07;96470.59;5023340;28;20049;-69
2023/03/05 01:09:38;;;;;;;1.93;1.30;;;;;;;4.23;55.21;96467.47;5006964;28;20335;-68
2023/03/05 01:12:05;;;;;;;2.20;1.20;;;;;;;4.49;56.32;96463.09;5028010;28;20076;-68
2023/03/05 01:14:33;;;;;;;1.90;1.30;;;;;;;4.58;55.63;96455.88;5034886;28;20407;-68
2023/03/05 01:16:59;;;;;;;2.57;1.13;;;;;;;4.86;54.98;96465.22;5023122;28;20135;-68
2023/03/05 01:19:26;;;;;;;3.70;1.17;;;;;;;4.73;54.48;96470.47;5023124;28;20093;-67
2023/03/05 01:21:53;;;;;;;2.90;1.33;;;;;;;4.40;55.49;96463.47;5006228;28;20442;-68
2023/03/05 01:24:22;;;;;;;2.33;1.40;;;;;;;4.63;55.51;96461.31;5039116;28;20040;-68
2023/03/05 01:26:48;;;;;;;2.07;1.10;;;;;;;4.46;55.53;96463.50;5006666;28;20079;-71
2023/03/05 01:29:14;;;;;;;2.63;1.10;;;;;;;4.47;55.33;96466.94;5023014;28;20056;-68
2023/03/05 01:31:41;;;;;;;1.73;1.40;;;;;;;4.58;54.88;96469.00;5022630;28;20068;-68
2023/03/05 01:34:07;;;;;;;3.87;1.43;;;;;;;4.66;54.35;96464.38;5054965;28;20063;-68
2023/03/05 01:36:34;;;;;;;3.23;1.20;;;;;;;4.68;54.22;96475.50;5039255;28;20087;-67
2023/03/05 01:39:00;;;;;;;1.60;1.17;;;;;;;4.31;54.81;96467.28;4990144;28;20377;-67
2023/03/05 01:41:26;;;;;;;1.87;1.03;;;;;;;4.21;54.48;96480.78;5005867;28;20069;-68
2023/03/05 01:43:52;;;;;;;3.10;1.20;;;;;;;4.47;55.22;96470.38;5005698;28;20059;-68
2023/03/05 01:46:29;;;;;;;1.80;1.20;;;;;;;4.57;54.75;96476.06;5022768;28;20520;-68
2023/03/05 01:49:07;;;;;;;2.30;1.40;;;;;;;4.49;54.19;96483.31;5022111;28;20036;-68
2023/03/05 01:51:40;;;;;;;1.43;1.30;;;;;;;4.42;55.62;96470.16;5038694;28;20044;-69
2023/03/05 01:54:11;;;;;;;1.10;1.00;;;;;;;4.35;55.13;96461.44;5005965;28;20086;-69
2023/03/05 01:56:38;;;;;;;3.08;1.30;;;;;;;4.25;55.22;96474.13;5039531;28;20055;-69
2023/03/05 01:59:06;;;;;;;2.00;1.03;;;;;;;4.20;54.95;96470.44;5022530;28;20056;-68
2023/03/05 02:01:42;;;;;;;2.57;1.40;;;;;;;4.47;55.16;96465.13;5005910;28;20040;-68
2023/03/05 02:04:12;;;;;;;1.50;1.13;;;;;;;4.09;54.72;96471.81;5038310;28;20139;-68
2023/03/05 02:06:38;;;;;;;;;;;;;;;4.84;54.22;96477.75;5022144;28;20047;-68
2023/03/05 02:09:05;;;;;;;1.27;1.17;;;;;;;3.88;54.12;96482.41;5034839;28;19916;-71
2023/03/05 02:11:32;;;;;;;2.27;1.40;;;;;;;3.87;54.96;96462.44;5033921;28;20040;-68
2023/03/05 02:13:59;;;;;;;3.00;1.20;;;;;;;3.82;54.95;96464.00;5038115;28;20102;-68
2023/03/05 02:16:25;;;;;;;3.20;1.30;;;;;;;3.73;55.83;96454.66;5002297;28;20047;-68
2023/03/05 02:18:51;;;;;;;4.57;1.30;;;;;;;4.12;55.51;96468.81;5020234;28;20187;-71
2023/03/05 02:21:37;;;;;;;6.07;1.37;;;;;;;4.50;55.03;96464.75;5028556;28;20147;-68
2023/03/05 02:24:04;;;;;;;4.93;1.60;;;;;;;4.17;54.96;96471.66;5054508;28;20112;-67
2023/03/05 02:26:30;;;;;;;1.83;1.30;;;;;;;3.86;55.04;96458.16;5029508;28;20045;-68
2023/03/05 02:29:00;;;;;;;1.83;1.00;;;;;;;3.95;55.43;96462.25;5054550;28;20480;-68
2023/03/05 02:31:26;;;;;;;2.20;1.40;;;;;;;3.82;55.81;96458.75;5021545;28;20059;-67
2023/03/05 02:33:55;;;;;;;1.80;1.30;;;;;;;3.60;56.50;96451.97;5021397;28;20125;-68
2023/03/05 02:36:27;;;;;;;1.90;1.30;;;;;;;3.84;55.57;96443.63;5022885;28;20048;-68
2023/03/05 02:38:55;;;;;;;4.43;1.30;;;;;;;4.10;54.99;96449.84;5021591;28;20069;-68
2023/03/05 02:41:23;;;;;;;3.33;1.40;;;;;;;4.25;54.93;96450.50;5037965;28;20037;-67
2023/03/05 02:43:50;;;;;;;1.50;1.33;;;;;;;3.55;55.01;96446.47;5021604;28;20051;-67
2023/03/05 02:46:16;;;;;;;1.40;1.30;;;;;;;3.94;55.44;96447.53;5021036;28;20138;-68
2023/03/05 02:48:42;;;;;;;2.77;1.50;;;;;;;4.04;54.64;96458.50;5037700;28;20036;-67
2023/03/05 02:51:11;;;;;;;1.77;1.40;;;;;;;4.12;54.48;96462.75;5022104;28;20500;-67
2023/03/05 02:53:38;;;;;;;2.50;1.30;;;;;;;4.48;54.41;96458.03;5021215;28;20040;-68
2023/03/05 02:56:10;;;;;;;4.60;1.70;;;;;;;4.05;54.01;96461.91;5018900;28;20132;-68
2023/03/05 02:58:36;;;;;;;2.10;1.30;;;;;;;4.17;53.76;96452.47;5017211;28;20135;-68
2023/03/05 03:01:02;;;;;;;2.40;1.40;;;;;;;4.12;53.64;96454.88;5037462;28;20070;-68
2023/03/05 03:03:30;;;;;;;3.00;1.40;;;;;;;4.01;53.63;96456.25;5021366;28;20041;-68
2023/03/05 03:05:56;;;;;;;1.63;1.43;;;;;;;3.81;54.71;96442.22;5004933;28;20043;-68
2023/03/05 03:08:23;;;;;;;1.67;1.50;;;;;;;3.92;54.33;96454.75;5032493;28;20044;-67
2023/03/05 03:10:50;;;;;;;1.47;1.33;;;;;;;4.11;54.04;96456.69;5003163;28;20045;-68
2023/03/05 03:13:17;;;;;;;2.57;1.50;;;;;;;3.71;54.01;96449.59;5021123;28;20511;-67
2023/03/05 03:15:44;;;;;;;1.93;1.40;;;;;;;3.70;54.30;96442.75;5020910;28;20051;-68
2023/03/05 03:18:10;;;;;;;2.87;1.50;;;;;;;3.86;54.44;96450.28;5001517;28;20045;-67
2023/03/05 03:20:39;;;;;;;2.47;1.30;;;;;;;4.00;53.92;96461.69;5015352;28;20063;-67
2023/03/05 03:23:05;;;;;;;2.90;1.47;;;;;;;3.89;54.04;96446.50;5017629;28;20494;-68
2023/03/05 03:25:32;;;;;;;2.07;1.40;;;;;;;4.01;54.17;96452.81;5016648;28;20435;-68
2023/03/05 03:27:59;;;;;;;1.50;1.40;;;;;;;3.83;54.50;96450.69;5035981;28;20079;-68
2023/03/05 03:30:25;;;;;;;1.40;1.30;;;;;;;3.74;54.57;96430.84;5005124;28;20051;-67
2023/03/05 03:32:51;;;;;;;2.83;1.53;;;;;;;3.74;55.39;96446.59;5004876;28;20523;-68
2023/03/05 03:35:17;;;;;;;3.63;1.70;;;;;;;3.87;55.02;96448.50;5037159;28;20585;-67
2023/03/05 03:37:43;;;;;;;3.17;1.60;;;;;;;3.80;54.75;96452.91;5024221;28;20678;-68
2023/03/05 03:40:11;;;;;;;3.30;1.77;;;;;;;4.21;54.37;96444.03;5024488;28;20495;-68
2023/03/05 03:42:38;;;;;;;1.57;1.40;;;;;;;3.67;55.02;96452.81;5041436;28;20448;-68
2023/03/05 03:45:04;;;;;;;4.03;1.90;;;;;;;3.66;56.22;96444.13;5040963;28;20139;-68
2023/03/05 03:47:33;;;;;;;2.33;1.67;;;;;;;4.22;55.65;96444.81;5024691;28;20070;-68
2023/03/05 03:50:00;;;;;;;2.27;1.83;;;;;;;3.84;55.17;96451.50;5042720;28;20059;-68
2023/03/05 03:52:26;;;;;;;4.70;1.80;;;;;;;3.78;56.25;96444.41;5041204;28;20045;-68
2023/03/05 03:54:54;;;;;;;4.03;1.80;;;;;;;4.03;55.43;96443.72;5008547;28;20051;-68
2023/03/05 03:57:20;;;;;;;3.07;1.60;;;;;;;4.06;54.83;96438.09;5024567;28;20048;-69
2023/03/05 03:59:49;;;;;;;2.73;1.80;;;;;;;4.01;55.21;96451.00;5024156;28;20551;-68
2023/03/05 04:02:16;;;;;;;4.00;1.60;;;;;;;4.35;55.19;96452.75;5024573;28;20080;-69
2023/03/05 04:04:42;;;;;;;2.30;1.53;;;;;;;4.27;54.58;96452.94;5041072;28;20499;-69
2023/03/05 04:07:08;;;;;;;3.87;1.70;;;;;;;4.38;54.42;96444.47;5007736;28;20036;-68
2023/03/05 04:09:34;;;;;;;2.13;1.37;;;;;;;4.26;54.77;96453.94;5040490;28;20101;-68
2023/03/05 04:12:01;;;;;;;4.97;2.30;;;;;;;4.19;54.39;96447.84;5023980;28;20063;-68
2023/03/05 04:14:28;;;;;;;2.30;2.00;;;;;;;4.41;54.15;96451.97;5073999;28;20400;-72
2023/03/05 04:16:54;;;;;;;2.87;1.80;;;;;;;4.43;54.08;96452.56;5008111;28;20064;-68
2023/03/05 04:19:20;;;;;;;4.20;1.90;;;;;;;4.10;54.13;96467.38;5040293;28;20044;-68
2023/03/05 04:21:46;;;;;;;2.80;1.93;;;;;;;4.27;53.99;96443.25;5023929;28;20109;-68
2023/03/05 04:24:12;;;;;;;4.43;2.00;;;;;;;4.27;54.47;96448.50;5007618;28;20040;-68
2023/03/05 04:26:38;;;;;;;3.47;1.87;;;;;;;4.04;54.93;96452.41;5023837;28;20491;-68
2023/03/05 04:29:04;;;;;;;5.43;2.13;;;;;;;4.10;55.19;96454.25;5023914;28;20063;-68
2023/03/05 04:31:31;;;;;;;3.07;2.03;;;;;;;4.26;55.14;96446.84;5007761;28;20045;-67
2023/03/05 04:34:00;;;;;;;4.40;1.80;;;;;;;4.23;54.91;96436.75;5024052;28;20036;-69
2023/03/05 04:36:27;;;;;;;4.37;1.90;;;;;;;4.26;55.20;96446.06;5008255;28;20041;-68
2023/03/05 04:38:53;;;;;;;9.17;2.47;;;;;;;4.11;54.96;96451.44;5023555;28;20044;-68
2023/03/05 04:41:20;;;;;;;4.73;2.20;;;;;;;4.09;55.25;96442.16;5007183;28;20590;-69
2023/03/05 04:43:46;;;;;;;2.10;1.87;;;;;;;4.04;55.55;96450.63;5056837;28;20548;-69
2023/03/05 04:46:12;;;;;;;3.23;2.10;;;;;;;4.22;55.44;96442.19;5007227;28;20131;-68
2023/03/05 04:48:38;;;;;;;2.07;1.73;;;;;;;4.28;55.21;96447.47;5022583;28;20048;-68
2023/03/05 04:51:06;;;;;;;5.03;2.23;;;;;;;4.02;55.03;96451.78;5040222;28;20055;-69
2023/03/05 04:53:32;;;;;;;2.27;1.70;;;;;;;4.13;55.72;96448.63;5023488;28;20036;-69
2023/03/05 04:56:00;;;;;;;3.97;1.70;;;;;;;4.31;55.81;96454.97;5007524;28;20045;-69
2023/03/05 04:58:27;;;;;;;2.63;1.73;;;;;;;4.50;55.43;96458.66;5003873;28;20156;-68
2023/03/05 05:00:55;;;;;;;3.77;1.93;;;;;;;4.21;55.56;96437.94;4987625;28;20053;-69
2023/03/05 05:03:22;;;;;;;6.23;2.07;;;;;;;4.22;55.41;96445.63;5003809;28;20074;-68
2023/03/05 05:05:54;;;;;;;4.67;1.77;;;;;;;4.70;55.46;96443.75;5019947;28;20041;-68
2023/03/05 05:08:19;;;;;;;3.03;1.63;;;;;;;4.38;55.29;96452.38;4997440;28;20079;-68
2023/03/05 05:10:45;;;;;;;3.67;1.70;;;;;;;4.54;54.62;96454.63;4984407;28;20081;-68
2023/03/05 05:13:11;;;;;;;1.97;1.77;;;;;;;4.53;54.21;96453.84;4987152;28;20048;-65
2023/03/05 05:15:39;;;;;;;2.27;1.50;;;;;;;4.56;54.76;96447.38;5036079;28;20053;-66
2023/03/05 05:18:05;;;;;;;1.90;1.67;;;;;;;4.40;54.26;96452.97;5003264;28;20045;-66
2023/03/05 05:20:31;;;;;;;12.67;1.70;;;;;;;4.22;55.10;96458.78;4987393;28;20045;-65
2023/03/05 05:22:58;;;;;;;1.77;1.40;;;;;;;3.84;56.14;96451.50;5019803;28;20563;-67
2023/03/05 05:25:25;;;;;;;5.03;2.53;;;;;;;4.11;55.62;96446.19;5019373;28;20084;-67
2023/03/05 05:27:51;;;;;;;2.47;1.63;;;;;;;4.33;54.65;96452.13;5003035;28;20139;-66
2023/03/05 05:30:17;;;;;;;6.33;1.60;;;;;;;4.15;54.17;96444.00;5013248;28;20131;-66
2023/03/05 05:32:43;;;;;;;2.43;1.50;;;;;;;3.90;54.88;96469.91;4983972;28;20060;-67
2023/03/05 05:35:10;;;;;;;3.93;1.40;;;;;;;4.01;55.39;96466.75;5002755;28;20040;-67
2023/03/05 05:37:38;;;;;;;2.30;1.57;;;;;;;4.28;54.72;96462.41;5002649;28;20389;-67
2023/03/05 05:40:05;;;;;;;2.97;1.23;;;;;;;4.07;55.91;96478.28;5003117;28;20124;-66
2023/03/05 05:42:31;;;;;;;1.20;1.10;;;;;;;3.55;56.09;96464.84;5003130;28;20488;-65
2023/03/05 05:45:01;;;;;;;2.47;1.40;;;;;;;4.20;55.91;96473.91;5001672;28;20045;-65
2023/03/05 05:47:30;;;;;;;1.90;1.40;;;;;;;4.22;54.84;96471.91;5004157;28;20072;-66
2023/03/05 05:49:56;;;;;;;2.17;1.40;;;;;;;4.14;54.58;96464.19;5019030;28;20064;-66
2023/03/05 05:52:22;;;;;;;3.80;1.70;;;;;;;4.48;54.26;96468.56;5019013;28;20045;-67
2023/03/05 05:54:48;;;;;;;2.23;1.60;;;;;;;4.65;54.05;96473.28;5002385;28;20047;-67
2023/03/05 05:57:14;;;;;;;1.63;1.40;;;;;;;5.05;52.95;96482.88;4995714;28;20045;-67
2023/03/05 05:59:42;;;;;;;3.70;1.40;;;;;;;5.22;52.91;96464.88;5022172;28;20059;-67
2023/03/05 06:02:10;;;;;;;3.53;1.63;;;;;;;5.15;52.18;96477.22;5009631;28;20041;-67
2023/03/05 06:04:36;;;;;;;1.87;1.40;;;;;;;4.74;52.63;96484.41;5013042;28;20040;-68
2023/03/05 06:07:02;;;;;;;2.53;1.60;;;;;;;4.87;52.88;96479.97;5012024;28;20040;-69
2023/03/05 06:09:29;;;;;;;1.97;1.40;;;;;;;4.83;52.33;96486.66;5002140;28;20033;-67
2023/03/05 06:11:55;;;;;;;2.10;1.57;;;;;;;5.19;52.20;96487.13;5034385;28;20143;-67
2023/03/05 06:14:21;;;;;;;3.23;1.80;;;;;;;5.01;50.31;96472.94;5018641;28;20496;-72
2023/03/05 06:16:48;;;;;;;6.37;1.77;;;;;;;4.99;51.11;96486.28;5010165;28;20056;-71
2023/03/05 06:19:15;;;;;;;2.90;1.30;;;;;;;5.16;50.90;96484.91;5010500;28;20032;-69
2023/03/05 06:21:42;;;;;;;1.80;1.30;;;;;;;5.19;50.91;96487.13;5027482;28;20052;-71
2023/03/05 06:24:09;;;;;;;3.20;1.70;;;;;;;5.03;57.19;96468.28;5054254;28;20040;-71
2023/03/05 06:26:35;;;;;;;4.57;1.60;;;;;;;5.22;51.91;96488.53;5015072;28;20040;-70
2023/03/05 06:29:01;;;;;;;1.87;1.63;;;;;;;5.02;50.83;96485.06;5026066;28;20346;-71
2023/03/05 06:31:28;;;;;;;3.17;1.57;;;;;;;5.33;51.01;96492.38;5027401;28;20479;-71
2023/03/05 06:33:57;;;;;;;4.30;1.80;;;;;;;5.40;50.72;96493.22;5018113;28;20091;-69
2023/03/05 06:36:24;;;;;;;2.33;1.60;;;;;;;5.11;50.54;96492.59;4993426;28;20123;-69
2023/03/05 06:38:52;;;;;;;3.23;1.53;;;;;;;5.09;51.79;96494.59;5021542;28;20041;-70
2023/03/05 06:41:21;;;;;;;11.03;1.60;;;;;;;4.85;51.47;96505.69;5011004;28;20099;-71
2023/03/05 06:43:47;;;;;;;2.10;1.60;;;;;;;5.02;51.54;96499.03;5014546;28;20119;-70
2023/03/05 06:46:19;;;;;;;2.13;1.23;;;;;;;4.83;53.13;96506.88;4993568;28;20113;-69
2023/03/05 06:48:46;;;;;;;1.77;1.37;;;;;;;5.35;51.55;96501.69;5031547;28;20110;-72
2023/03/05 06:51:17;;;;;;;2.37;1.70;;;;;;;5.41;51.29;96500.91;5009923;28;20067;-70
2023/03/05 06:53:43;;;;;;;2.87;1.30;;;;;;;5.22;50.81;96497.25;5011020;28;20123;-70
2023/03/05 06:56:12;;;;;;;2.13;1.60;;;;;;;5.42;51.42;96512.22;5018328;28;20101;-70
2023/03/05 06:58:40;;;;;;;1.57;1.33;;;;;;;5.63;50.58;96518.09;5018824;28;20071;-73
2023/03/05 07:01:06;;;;;;;2.77;1.60;;;;;;;5.37;51.07;96514.63;5029234;28;20056;-69
2023/03/05 07:03:33;;;;;;;2.70;1.57;;;;;;;5.59;51.63;96508.19;5063108;28;20036;-71
2023/03/05 07:06:04;;;;;;;3.57;1.83;;;;;;;5.92;50.92;96503.75;5046976;28;20094;-70
2023/03/05 07:08:31;;;;;;;1.83;1.55;;;;;;;5.73;50.38;96512.44;5046470;28;20617;-70
2023/03/05 07:10:58;;;;;;;1.60;1.50;;;;;;;5.63;50.42;96518.09;5009358;28;20333;-66
2023/03/05 07:13:24;;;;;;;1.40;1.30;;;;;;;5.89;50.71;96520.75;5042830;28;20482;-65
2023/03/05 07:15:53;;;;;;;2.30;1.30;;;;;;;5.29;50.03;96507.75;5026062;28;20479;-66
2023/03/05 07:18:19;;;;;;;2.03;1.30;;;;;;;5.42;51.51;96528.84;5039538;28;20042;-67
2023/03/05 07:20:44;;;;;;;1.97;1.70;;;;;;;5.28;50.92;96524.56;5019022;28;20126;-67
2023/03/05 07:23:10;;;;;;;4.67;1.47;;;;;;;5.48;50.57;96532.47;5018574;28;20052;-67
2023/03/05 07:25:37;;;;;;;2.77;1.67;;;;;;;5.41;50.66;96523.78;5002280;28;20044;-68
2023/03/05 07:28:05;;;;;;;3.40;1.60;;;;;;;5.63;50.45;96539.16;5018680;28;20054;-68
2023/03/05 07:30:32;;;;;;;2.90;1.40;;;;;;;5.21;50.39;96537.69;5018878;28;20133;-69
2023/03/05 07:32:57;;;;;;;3.03;1.70;;;;;;;4.75;51.01;96534.13;5030492;28;20036;-67
2023/03/05 07:35:23;;;;;;;4.37;1.70;;;;;;;4.92;52.83;96548.56;5025341;28;20036;-67
2023/03/05 07:37:50;;;;;;;4.47;1.47;;;;;;;5.21;52.71;96544.78;5040079;28;20507;-66
2023/03/05 07:40:16;;;;;;;1.40;1.20;;;;;;;4.66;52.27;96555.53;5053896;28;20094;-68
2023/03/05 07:42:42;;;;;;;1.80;1.40;;;;;;;5.06;52.90;96550.22;5052917;28;20091;-71
2023/03/05 07:45:15;;;;;;;2.37;1.53;;;;;;;5.15;51.89;96545.59;5022267;28;20201;-70
2023/03/05 07:47:42;;;;;;;2.00;1.70;;;;;;;5.23;52.01;96548.84;5002924;28;20040;-69
2023/03/05 07:50:09;;;;;;;1.40;1.30;;;;;;;5.41;51.69;96560.59;5018115;28;20171;-69
2023/03/05 07:52:34;;;;;;;4.87;1.77;;;;;;;4.66;52.05;96558.16;5016503;28;20051;-74
2023/03/05 07:55:09;;;;;;;1.23;1.13;;;;;;;4.79;54.02;96552.97;5034902;28;20143;-71
2023/03/05 07:57:37;;;;;;;3.13;1.70;;;;;;;4.83;53.45;96559.44;5030786;28;20094;-70
2023/03/05 08:00:04;;;;;;;3.50;1.83;;;;;;;4.93;53.14;96578.28;5043623;28;20102;-69
2023/03/05 08:02:37;;;;;;;2.87;1.40;;;;;;;4.65;52.96;96567.88;5042320;28;20043;-67
2023/03/05 08:05:04;;;;;;;2.03;1.30;;;;;;;4.93;53.87;96586.19;5073851;28;20055;-68
2023/03/05 08:07:30;;;;;;;1.30;1.20;;;;;;;5.05;52.79;96580.16;5039596;28;20483;-70
2023/03/05 08:09:56;;;;;;;1.73;1.27;;;;;;;4.85;52.82;96589.81;5021768;28;20054;-68
2023/03/05 08:12:22;;;;;;;1.40;1.30;;;;;;;4.86;52.79;96573.00;5054524;28;20040;-68
2023/03/05 08:14:48;;;;;;;2.07;1.40;;;;;;;4.78;53.31;96581.06;5037606;28;20686;-70
2023/03/05 08:17:14;;;;;;;1.93;1.60;;;;;;;5.00;53.23;96590.47;5037082;28;20036;-69
2023/03/05 08:19:40;;;;;;;6.90;1.67;;;;;;;4.91;52.86;96594.28;5051524;28;20044;-71
2023/03/05 08:22:05;;;;;;;4.03;1.80;;;;;;;5.24;52.53;96595.16;5071553;28;20047;-74
2023/03/05 08:24:31;;;;;;;1.70;1.57;;;;;;;5.41;52.03;96603.53;5043173;28;20036;-68
2023/03/05 08:26:57;;;;;;;3.90;1.87;;;;;;;5.27;51.89;96596.63;5044094;28;20491;-68
2023/03/05 08:29:24;;;;;;;1.50;1.40;;;;;;;5.22;51.97;96609.53;5043847;28;20518;-68
2023/03/05 08:31:52;;;;;;;2.63;1.43;;;;;;;5.41;52.26;96611.44;5077125;28;20127;-68
2023/03/05 08:34:19;;;;;;;2.83;2.30;;;;;;;5.77;52.35;96611.03;5044429;28;20043;-68
2023/03/05 08:36:46;;;;;;;1.70;1.50;;;;;;;5.33;52.13;96619.50;5077201;28;20044;-68
2023/03/05 08:39:12;;;;;;;2.33;1.63;;;;;;;5.64;52.42;96617.13;5060334;28;20447;-70
2023/03/05 08:41:38;;;;;;;1.60;1.50;;;;;;;5.76;52.23;96626.06;5043555;28;20044;-68
2023/03/05 08:44:04;;;;;;;2.07;1.73;;;;;;;5.83;51.58;96640.06;5044036;28;20205;-68
2023/03/05 08:46:30;;;;;;;2.37;1.67;;;;;;;5.68;52.78;96615.72;5027233;28;20527;-67
2023/03/05 08:48:55;;;;;;;2.90;2.30;;;;;;;5.81;52.21;96628.06;5043513;28;20040;-68
2023/03/05 08:51:25;;;;;;;3.40;2.23;;;;;;;5.94;52.15;96634.19;5076635;28;20076;-68
2023/03/05 08:53:53;;;;;;;3.72;1.90;;;;;;;6.26;51.88;96636.00;5060480;28;20047;-68
2023/03/05 08:56:19;;;;;;;1.70;1.60;;;;;;;6.21;52.20;96646.34;5043374;28;20043;-68
2023/03/05 08:58:46;;;;;;;3.30;2.47;;;;;;;6.24;51.64;96643.28;5043122;28;20056;-68
2023/03/05 09:01:12;;;;;;;2.67;1.90;;;;;;;6.42;51.10;96651.41;5043373;28;20468;-68
2023/03/05 09:03:38;;;;;;;4.93;2.30;;;;;;;6.56;51.26;96647.75;5076421;28;20413;-75
2023/03/05 09:06:07;;;;;;;4.00;2.87;;;;;;;6.62;50.85;96649.56;5043255;28;20054;-69
2023/03/05 09:08:33;;;;;;;4.23;3.20;;;;;;;6.58;50.99;96648.31;5043352;28;20044;-68
2023/03/05 09:11:04;;;;;;;3.37;2.60;;;;;;;7.03;51.37;96659.00;5043134;28;20048;-67
2023/03/05 09:13:30;;;;;;;3.85;2.72;;;;;;;6.73;50.28;96661.28;5059495;28;20055;-68
2023/03/05 09:15:59;;;;;;;3.17;2.60;;;;;;;7.24;50.29;96662.16;5041784;28;20045;-68
2023/03/05 09:18:25;;;;;;;3.90;3.17;;;;;;;7.21;49.92;96665.19;5059773;28;20392;-68
2023/03/05 09:20:51;;;;;;;3.43;2.83;;;;;;;7.18;49.78;96667.47;5094028;28;20143;-67
2023/03/05 09:23:17;;;;;;;4.60;3.40;;;;;;;7.29;49.33;96672.09;5059560;28;20131;-69
2023/03/05 09:25:43;;;;;;;5.50;3.37;;;;;;;7.21;49.08;96674.94;5042711;28;20101;-68
2023/03/05 09:28:08;;;;;;;5.00;3.50;;;;;;;7.37;49.42;96679.75;5043195;28;20044;-75
2023/03/05 09:30:34;;;;;;;5.73;3.53;;;;;;;7.22;49.24;96684.47;5059588;28;20047;-68
2023/03/05 09:33:04;;;;;;;4.13;2.67;;;;;;;7.74;50.71;96678.94;5059272;28;20495;-68
2023/03/05 09:35:34;;;;;;;3.23;2.50;;;;;;;7.56;49.93;96697.34;5042387;28;20072;-68
2023/03/05 09:38:01;;;;;;;3.85;2.65;;;;;;;7.63;50.32;96700.75;5059258;28;20079;-68
2023/03/05 09:40:31;;;;;;;4.13;3.07;;;;;;;7.67;49.53;96697.47;5059309;28;20067;-68
2023/03/05 09:43:23;;;;;;;3.00;2.50;;;;;;;7.92;49.93;96697.53;5059135;28;20377;-67
2023/03/05 09:46:01;;;;;;;2.90;2.40;;;;;;;7.90;49.59;96696.97;5059214;28;20131;-68
2023/03/05 09:48:56;;;;;;;3.40;2.63;;;;;;;8.00;48.71;96705.22;5059416;28;20032;-68
2023/03/05 09:51:26;;;;;;;3.70;2.97;;;;;;;7.76;48.79;96719.19;5059010;28;20059;-68
2023/03/05 09:54:15;;;;;;;5.47;3.40;;;;;;;7.96;48.36;96712.78;5042265;28;20036;-68
2023/03/05 09:56:44;;;;;;;4.70;3.10;;;;;;;7.61;48.49;96724.72;5042201;28;20092;-71
2023/03/05 09:59:27;;;;;;;7.27;4.37;;;;;;;7.76;48.58;96727.09;5075502;28;20071;-79
2023/03/05 10:01:58;;;;;;;8.40;4.47;;;;;;;7.72;48.31;96731.19;5058692;28;20207;-68
2023/03/05 10:04:47;;;;;;;6.18;3.40;;;;;;;7.91;48.29;96730.28;5058839;28;20054;-68
2023/03/05 10:07:23;;;;;;;4.50;3.33;;;;;;;7.87;48.87;96735.16;5058651;28;20044;-68
2023/03/05 10:10:00;;;;;;;6.77;4.17;;;;;;;8.02;48.49;96733.06;5058506;28;20044;-68
2023/03/05 10:12:44;;;;;;;8.23;4.17;;;;;;;8.27;48.05;96741.06;5058521;28;20047;-68
2023/03/05 10:15:12;;;;;;;9.23;5.33;;;;;;;8.24;47.58;96747.56;5075497;28;20071;-68
2023/03/05 10:17:56;;;;;;;9.70;4.87;;;;;;;8.13;46.86;96752.72;5058518;28;20052;-68
2023/03/05 10:20:37;;;;;;;7.20;4.50;;;;;;;8.45;47.07;96752.53;5058092;28;20156;-68
2023/03/05 10:23:15;;;;;;;6.47;4.63;;;;;;;8.71;47.21;96759.44;5041588;28;20135;-68
2023/03/05 10:25:42;;;;;;;7.03;4.07;;;;;;;8.46;46.32;96766.53;5041418;28;20075;-69
2023/03/05 10:28:18;;;;;;;5.00;3.13;;;;;;;8.91;46.67;96768.03;5058447;28;20351;-66
2023/03/05 10:30:44;;;;;;;10.10;3.73;;;;;;;8.46;45.71;96771.84;5041985;28;20048;-66
2023/03/05 10:33:34;;;;;;;6.47;3.90;;;;;;;9.04;45.77;96778.47;5058098;28;20441;-67
2023/03/05 10:36:30;;;;;;;7.83;4.63;;;;;;;9.18;46.08;96782.63;5041452;28;20043;-67
2023/03/05 10:39:25;;;;;;;27.20;4.93;;;;;;;9.22;45.33;96796.25;5074542;28;20040;-66
2023/03/05 10:42:24;;;;;;;8.30;4.40;;;;;;;9.09;45.17;96794.53;5041261;28;20052;-67
2023/03/05 10:44:54;;;;;;;5.00;2.73;;;;;;;8.91;46.35;96786.56;5041315;28;20485;-68
2023/03/05 10:47:31;;;;;;;9.83;4.23;;;;;;;9.06;46.52;96810.03;5040905;28;20104;-67
2023/03/05 10:49:57;;;;;;;8.03;4.33;;;;;;;8.85;46.23;96808.59;5024909;28;20112;-67
2023/03/05 10:52:34;;;;;;;8.13;4.77;;;;;;;8.51;46.30;96809.03;5041005;28;20039;-67
2023/03/05 10:55:00;;;;;;;11.73;6.30;;;;;;;8.73;46.80;96814.78;5057976;28;20483;-67
2023/03/05 10:57:28;;;;;;;14.33;7.23;;;;;;;8.73;46.27;96815.59;5041333;28;20061;-67
2023/03/05 11:00:18;;;;;;;11.97;5.40;;;;;;;9.02;46.25;96825.56;5041046;28;20052;-67
2023/03/05 11:03:07;;;;;;;18.27;8.13;;;;;;;9.01;45.63;96834.50;5038303;28;20357;-74
2023/03/05 11:05:59;;;;;;;16.70;7.93;;;;;;;9.00;45.98;96835.53;5040971;28;20040;-67
2023/03/05 11:08:33;;;;;;;11.17;4.10;;;;;;;8.81;45.71;96844.41;5057489;28;20044;-66
2023/03/05 11:11:08;;;;;;;10.00;5.10;;;;;;;8.73;45.03;96852.66;5041077;28;20192;-66
2023/03/05 11:13:36;;;;;;;6.97;4.87;;;;;;;8.41;44.55;96856.31;5057748;28;20058;-67
2023/03/05 11:16:04;;;;;;;7.40;4.60;;;;;;;8.52;45.40;96853.78;5091846;28;20383;-66
2023/03/05 11:18:33;;;;;;;12.90;6.20;;;;;;;8.64;45.19;96858.41;5040946;28;20051;-66
2023/03/05 11:21:11;;;;;;;18.67;9.90;;;;;;;9.09;45.66;96859.88;5057514;28;20460;-66
2023/03/05 11:23:37;;;;;;;7.70;5.00;;;;;;;8.74;44.78;96870.13;5057316;28;20047;-66
2023/03/05 11:26:12;;;;;;;5.63;3.40;;;;;;;9.05;44.14;96866.66;5040851;28;20108;-66
2023/03/05 11:28:41;;;;;;;10.10;6.53;;;;;;;8.98;43.86;96871.97;5057430;28;20051;-66
2023/03/05 11:31:16;;;;;;;11.83;7.10;;;;;;;9.13;44.08;96890.22;5074073;28;20105;-66
2023/03/05 11:33:59;;;;;;;15.33;7.80;;;;;;;9.25;44.33;96893.78;5057647;28;20044;-68
2023/03/05 11:36:28;;;;;;;14.73;8.23;;;;;;;8.87;43.78;96896.50;5057539;28;20399;-65
2023/03/05 11:39:18;;;;;;;14.33;8.57;;;;;;;9.25;43.37;96912.31;5074184;28;20458;-65
2023/03/05 11:41:48;;;;;;;18.95;10.13;;;;;;;9.08;43.56;96909.41;5029214;28;20116;-66
2023/03/05 11:44:19;;;;;;;15.73;9.65;;;;;;;8.99;44.33;96915.16;5024494;28;20040;-66
2023/03/05 11:46:49;;;;;;;19.00;9.50;;;;;;;9.07;44.46;96922.84;5041041;28;20079;-65
2023/03/05 11:49:20;;;;;;;19.60;9.83;;;;;;;9.15;44.36;96914.66;5040876;28;20480;-66